createdAt,value
2023-01-03T00:01:08.448Z,94013.63
2023-01-03T00:02:40.046Z,94015.72
2023-01-03T00:04:11.686Z,94012.81
2023-01-03T00:05:43.852Z,94017.34
2023-01-03T00:07:15.370Z,94014.69
2023-01-03T00:08:46.996Z,94015.97
2023-01-03T00:10:18.648Z,94014.63
2023-01-03T00:12:08.966Z,94020.44
2023-01-03T00:13:40.514Z,94015.69
2023-01-03T00:15:15.788Z,94017.06
2023-01-03T00:16:48.671Z,94016.25
2023-01-03T00:18:20.242Z,94017.59
2023-01-03T00:19:51.711Z,94014.75
2023-01-03T00:21:23.242Z,94017.19
2023-01-03T00:22:54.762Z,94017.19
2023-01-03T00:24:26.273Z,94013.94
2023-01-03T00:25:57.847Z,94016.63
2023-01-03T00:27:29.505Z,94010.72
2023-01-03T00:29:01.071Z,94019.75
2023-01-03T00:30:32.696Z,94013.63
2023-01-03T00:32:04.410Z,94020.81
2023-01-03T00:33:36.778Z,94017.34
2023-01-03T00:35:08.697Z,94020.25
2023-01-03T00:36:40.334Z,94019.44
2023-01-03T00:38:11.920Z,94020.19
2023-01-03T00:39:44.077Z,94014.31
2023-01-03T00:41:16.355Z,94009.22
2023-01-03T00:43:06.517Z,94009.47
2023-01-03T00:44:38.098Z,94001.97
2023-01-03T00:46:10.089Z,94017.69
2023-01-03T00:47:41.734Z,94007.03
2023-01-03T00:49:13.656Z,94011.88
2023-01-03T00:50:45.194Z,94003.66
2023-01-03T00:52:16.850Z,94005.50
2023-01-03T00:53:48.797Z,94004.44
2023-01-03T00:55:20.307Z,93994.84
2023-01-03T00:56:52.106Z,94003.31
2023-01-03T00:58:23.568Z,93999.31
2023-01-03T00:59:55.067Z,93998.19
2023-01-03T01:01:28.144Z,94009.09
2023-01-03T01:02:59.876Z,93994.47
2023-01-03T01:04:31.606Z,94003.50
2023-01-03T01:06:16.828Z,94001.66
2023-01-03T01:07:48.281Z,94005.84
2023-01-03T01:09:23.487Z,94001.81
2023-01-03T01:11:04.062Z,94008.22
2023-01-03T01:12:35.571Z,94007.66
2023-01-03T01:14:22.471Z,94005.47
2023-01-03T01:15:54.033Z,94005.97
2023-01-03T01:17:28.349Z,93990.47
2023-01-03T01:19:00.132Z,94005.66
2023-01-03T01:20:31.615Z,94001.69
2023-01-03T01:22:03.200Z,94000.88
2023-01-03T01:23:35.064Z,93998.72
2023-01-03T01:25:06.717Z,93993.06
2023-01-03T01:26:38.331Z,93999.69
2023-01-03T01:28:09.950Z,94000.72
2023-01-03T01:29:41.739Z,93996.94
2023-01-03T01:31:14.630Z,93996.59
2023-01-03T01:32:46.176Z,93996.53
2023-01-03T01:34:18.102Z,93999.94
2023-01-03T01:35:49.647Z,93990.00
2023-01-03T01:37:21.229Z,93991.56
2023-01-03T01:38:54.376Z,93984.03
2023-01-03T01:40:26.334Z,93995.16
2023-01-03T01:42:23.179Z,93988.72
2023-01-03T01:44:15.566Z,93986.56
2023-01-03T01:45:47.056Z,93987.41
2023-01-03T01:47:30.249Z,93983.38
2023-01-03T01:49:02.689Z,93988.66
2023-01-03T01:50:40.908Z,93989.47
2023-01-03T01:52:13.167Z,93987.28
2023-01-03T01:53:44.628Z,93986.47
2023-01-03T01:55:16.992Z,93987.75
2023-01-03T01:56:49.299Z,93987.75
2023-01-03T01:58:21.359Z,93988.00
2023-01-03T01:59:52.877Z,93987.69
2023-01-03T02:01:24.772Z,93989.28
2023-01-03T02:02:56.698Z,93988.25
2023-01-03T02:04:29.567Z,93986.94
2023-01-03T02:06:01.724Z,93990.16
2023-01-03T02:07:34.255Z,93985.34
2023-01-03T02:09:05.761Z,93980.25
2023-01-03T02:10:45.459Z,93993.00
2023-01-03T02:12:35.359Z,93980.16
2023-01-03T02:14:10.119Z,93982.78
2023-01-03T02:15:44.518Z,93983.25
2023-01-03T02:17:20.933Z,93978.41
2023-01-03T02:18:52.439Z,93983.16
2023-01-03T02:20:23.962Z,93973.53
2023-01-03T02:22:14.256Z,93973.47
2023-01-03T02:23:53.115Z,93991.78
2023-01-03T02:25:30.189Z,93979.22
2023-01-03T02:27:05.299Z,93978.88
2023-01-03T02:28:40.039Z,93980.47
2023-01-03T02:30:15.002Z,93978.63
2023-01-03T02:32:12.505Z,93973.06
2023-01-03T02:34:10.644Z,93977.09
2023-01-03T02:36:00.482Z,93978.41
2023-01-03T02:37:50.912Z,93975.06
2023-01-03T02:39:28.386Z,93973.69
2023-01-03T02:41:12.091Z,93972.91
2023-01-03T02:42:58.969Z,93969.44
2023-01-03T02:44:32.540Z,93975.00
2023-01-03T02:46:14.206Z,93973.63
2023-01-03T02:47:50.463Z,93971.75
2023-01-03T02:49:23.432Z,93976.28
2023-01-03T02:50:55.237Z,93974.41
2023-01-03T02:52:27.407Z,93973.94
2023-01-03T02:53:58.924Z,93972.91
2023-01-03T02:55:30.509Z,93969.69
2023-01-03T02:57:03.648Z,93976.28
2023-01-03T02:58:35.481Z,93971.19
2023-01-03T03:00:11.071Z,93973.84
2023-01-03T03:01:45.179Z,93972.56
2023-01-03T03:03:17.977Z,93968.06
2023-01-03T03:04:50.933Z,93979.97
2023-01-03T03:06:25.689Z,93979.63
2023-01-03T03:07:57.218Z,93976.97
2023-01-03T03:09:29.689Z,93974.56
2023-01-03T03:11:19.665Z,93973.50
2023-01-03T03:13:09.820Z,93969.81
2023-01-03T03:14:48.322Z,93968.19
2023-01-03T03:16:42.384Z,93966.56
2023-01-03T03:18:18.529Z,93969.75
2023-01-03T03:20:10.789Z,93971.34
2023-01-03T03:22:00.995Z,93968.69
2023-01-03T03:23:51.821Z,93966.03
2023-01-03T03:25:25.945Z,93967.66
2023-01-03T03:26:58.084Z,93969.97
2023-01-03T03:28:36.119Z,93966.75
2023-01-03T03:30:08.642Z,93965.28
2023-01-03T03:31:41.199Z,93969.13
2023-01-03T03:33:13.166Z,93962.56
2023-01-03T03:34:44.676Z,93957.63
2023-01-03T03:36:37.174Z,93968.06
2023-01-03T03:38:09.008Z,93973.50
2023-01-03T03:39:59.153Z,93974.31
2023-01-03T03:41:58.636Z,93977.78
2023-01-03T03:43:50.069Z,93980.94
2023-01-03T03:45:32.792Z,93975.50
2023-01-03T03:47:07.960Z,93975.41
2023-01-03T03:48:58.014Z,93976.94
2023-01-03T03:50:35.503Z,93979.22
2023-01-03T03:52:08.428Z,93970.69
2023-01-03T03:53:39.889Z,93974.63
2023-01-03T03:55:13.680Z,93976.72
2023-01-03T03:56:46.625Z,93974.53
2023-01-03T03:58:21.848Z,93978.69
2023-01-03T03:59:55.375Z,93982.84
2023-01-03T04:01:27.054Z,93981.25
2023-01-03T04:02:59.518Z,93976.75
2023-01-03T04:04:35.936Z,93982.63
2023-01-03T04:06:09.450Z,93981.59
2023-01-03T04:07:40.958Z,93978.56
2023-01-03T04:09:12.540Z,93977.28
2023-01-03T04:10:44.170Z,93983.41
2023-01-03T04:12:15.758Z,93981.53
2023-01-03T04:13:47.319Z,93975.44
2023-01-03T04:15:18.896Z,93988.81
2023-01-03T04:16:50.425Z,93983.72
2023-01-03T04:18:22.043Z,93977.16
2023-01-03T04:19:53.600Z,93980.03
2023-01-03T04:21:25.179Z,93982.34
2023-01-03T04:22:56.985Z,93980.50
2023-01-03T04:24:28.556Z,93979.03
2023-01-03T04:26:00.112Z,93987.13
2023-01-03T04:27:31.614Z,93984.13
2023-01-03T04:29:03.263Z,93987.69
2023-01-03T04:30:35.211Z,93988.75
2023-01-03T04:32:07.309Z,93987.16
2023-01-03T04:33:39.516Z,93987.16
2023-01-03T04:35:11.391Z,93980.00
2023-01-03T04:36:42.932Z,93980.78
2023-01-03T04:38:14.581Z,93985.75
2023-01-03T04:39:46.168Z,93978.69
2023-01-03T04:41:18.361Z,93981.50
2023-01-03T04:43:08.580Z,93981.03
2023-01-03T04:44:40.177Z,93984.06
2023-01-03T04:46:11.889Z,93993.94
2023-01-03T04:47:43.545Z,93988.03
2023-01-03T04:49:15.454Z,93987.94
2023-01-03T04:50:57.082Z,93994.97
2023-01-03T04:52:29.056Z,93989.53
2023-01-03T04:54:00.828Z,93996.09
2023-01-03T04:55:32.342Z,93997.38
2023-01-03T04:57:03.863Z,93992.88
2023-01-03T04:58:35.419Z,93987.34
2023-01-03T05:00:07.187Z,93994.84
2023-01-03T05:01:38.961Z,94000.75
2023-01-03T05:03:10.659Z,93997.84
2023-01-03T05:04:42.294Z,94003.94
2023-01-03T05:06:14.040Z,94000.63
2023-01-03T05:07:45.503Z,93995.69
2023-01-03T05:09:17.149Z,94000.75
2023-01-03T05:10:48.773Z,93995.69
2023-01-03T05:12:20.544Z,94002.03
2023-01-03T05:13:52.162Z,93995.53
2023-01-03T05:15:23.719Z,93998.66
2023-01-03T05:16:55.323Z,94001.06
2023-01-03T05:18:27.201Z,94013.19
2023-01-03T05:20:17.653Z,94016.88
2023-01-03T05:22:07.814Z,94009.59
2023-01-03T05:23:57.993Z,94013.38
2023-01-03T05:25:47.915Z,94018.09
2023-01-03T05:27:19.457Z,94010.25
2023-01-03T05:28:52.094Z,94010.13
2023-01-03T05:30:23.853Z,94009.97
2023-01-03T05:31:55.566Z,94010.44
2023-01-03T05:33:27.212Z,94010.66
2023-01-03T05:34:58.905Z,94010.91
2023-01-03T05:36:30.415Z,94018.19
2023-01-03T05:38:01.914Z,94015.28
2023-01-03T05:39:33.359Z,94010.56
2023-01-03T05:41:04.896Z,94017.47
2023-01-03T05:42:36.438Z,94014.47
2023-01-03T05:44:07.970Z,94009.97
2023-01-03T05:45:39.655Z,94007.09
2023-01-03T05:47:11.175Z,94008.72
2023-01-03T05:48:43.530Z,94009.75
2023-01-03T05:50:15.063Z,94014.47
2023-01-03T05:51:46.512Z,94007.00
2023-01-03T05:53:18.185Z,94015.97
2023-01-03T05:54:49.736Z,94021.50
2023-01-03T05:56:21.180Z,94009.72
2023-01-03T05:57:53.013Z,94010.41
2023-01-03T05:59:24.786Z,94013.88
2023-01-03T06:00:56.319Z,94008.34
2023-01-03T06:02:28.339Z,94010.41
2023-01-03T06:03:59.943Z,94010.84
2023-01-03T06:05:31.440Z,94013.50
2023-01-03T06:07:02.981Z,94012.09
2023-01-03T06:08:34.477Z,94022.47
2023-01-03T06:10:06.221Z,94020.88
2023-01-03T06:11:39.111Z,94023.72
2023-01-03T06:13:10.707Z,94014.84
2023-01-03T06:14:42.162Z,94025.66
2023-01-03T06:16:35.223Z,94025.66
2023-01-03T06:18:06.789Z,94025.09
2023-01-03T06:19:38.315Z,94026.13
2023-01-03T06:21:09.800Z,94019.66
2023-01-03T06:22:41.288Z,94025.63
2023-01-03T06:24:12.736Z,94027.91
2023-01-03T06:25:44.268Z,94030.09
2023-01-03T06:27:15.842Z,94015.41
2023-01-03T06:28:47.411Z,94023.47
2023-01-03T06:30:18.936Z,94026.25
2023-01-03T06:31:50.426Z,94027.19
2023-01-03T06:33:21.937Z,94025.94
2023-01-03T06:34:53.565Z,94022.75
2023-01-03T06:36:26.313Z,94028.53
2023-01-03T06:37:57.814Z,94022.34
2023-01-03T06:39:29.584Z,94033.06
2023-01-03T06:41:01.119Z,94030.78
2023-01-03T06:42:45.420Z,94039.53
2023-01-03T06:44:16.959Z,94036.63
2023-01-03T06:46:07.206Z,94034.19
2023-01-03T06:47:57.317Z,94035.69
2023-01-03T06:49:47.816Z,94044.91
2023-01-03T06:51:38.441Z,94042.69
2023-01-03T06:53:12.948Z,94037.25
2023-01-03T06:54:44.510Z,94045.69
2023-01-03T06:56:16.108Z,94041.72
2023-01-03T06:57:47.613Z,94050.69
2023-01-03T06:59:19.244Z,94042.97
2023-01-03T07:00:50.703Z,94044.13
2023-01-03T07:02:22.510Z,94047.13
2023-01-03T07:03:54.264Z,94045.09
2023-01-03T07:05:25.991Z,94045.31
2023-01-03T07:06:57.648Z,94041.84
2023-01-03T07:08:29.153Z,94045.53
2023-01-03T07:10:00.585Z,94043.91
2023-01-03T07:11:32.260Z,94049.78
2023-01-03T07:13:22.527Z,94051.78
2023-01-03T07:14:54.190Z,94052.94
2023-01-03T07:16:27.111Z,94047.78
2023-01-03T07:17:58.708Z,94050.25
2023-01-03T07:19:30.410Z,94053.84
2023-01-03T07:21:02.190Z,94054.78
2023-01-03T07:22:33.736Z,94056.28
2023-01-03T07:24:05.867Z,94049.03
2023-01-03T07:25:41.551Z,94056.56
2023-01-03T07:27:13.217Z,94060.00
2023-01-03T07:28:44.835Z,94056.78
2023-01-03T07:30:16.593Z,94062.06
2023-01-03T07:31:48.164Z,94063.34
2023-01-03T07:33:19.811Z,94062.78
2023-01-03T07:34:51.393Z,94065.22
2023-01-03T07:36:23.040Z,94065.44
2023-01-03T07:37:54.633Z,94059.66
2023-01-03T07:39:26.193Z,94055.97
2023-01-03T07:40:58.587Z,94062.66
2023-01-03T07:42:48.581Z,94061.41
2023-01-03T07:44:20.202Z,94059.44
2023-01-03T07:45:51.930Z,94064.69
2023-01-03T07:47:23.620Z,94065.00
2023-01-03T07:48:55.591Z,94057.78
2023-01-03T07:50:27.129Z,94068.03
2023-01-03T07:51:58.733Z,94063.41
2023-01-03T07:53:31.968Z,94070.03
2023-01-03T07:55:03.531Z,94062.06
2023-01-03T07:56:35.185Z,94064.22
2023-01-03T07:58:06.775Z,94073.72
2023-01-03T07:59:38.450Z,94061.13
2023-01-03T08:01:13.861Z,94064.47
2023-01-03T08:02:45.701Z,94069.91
2023-01-03T08:04:17.333Z,94061.00
2023-01-03T08:05:48.878Z,94066.66
2023-01-03T08:07:20.470Z,94071.88
2023-01-03T08:09:12.157Z,94073.59
2023-01-03T08:11:02.148Z,94077.28
2023-01-03T08:12:52.043Z,94077.28
2023-01-03T08:14:26.201Z,94081.78
2023-01-03T08:15:58.751Z,94082.97
2023-01-03T08:17:30.294Z,94082.16
2023-01-03T08:19:01.923Z,94079.38
2023-01-03T08:20:33.434Z,94079.59
2023-01-03T08:22:05.115Z,94084.59
2023-01-03T08:23:36.603Z,94087.47
2023-01-03T08:25:08.384Z,94086.28
2023-01-03T08:26:39.909Z,94088.50
2023-01-03T08:28:14.484Z,94086.75
2023-01-03T08:29:46.562Z,94080.75
2023-01-03T08:31:18.827Z,94082.00
2023-01-03T08:32:50.448Z,94084.53
2023-01-03T08:34:29.135Z,94080.13
2023-01-03T08:36:03.103Z,94072.59
2023-01-03T08:37:34.604Z,94076.25
2023-01-03T08:39:06.900Z,94068.75
2023-01-03T08:40:42.107Z,94075.06
2023-01-03T08:42:14.518Z,94070.88
2023-01-03T08:43:45.981Z,94070.88
2023-01-03T08:45:17.676Z,94076.19
2023-01-03T08:46:49.901Z,94075.16
2023-01-03T08:48:21.675Z,94076.19
2023-01-03T08:49:53.297Z,94074.13
2023-01-03T08:51:26.788Z,94073.19
2023-01-03T08:52:58.461Z,94073.50
2023-01-03T08:54:30.044Z,94074.19
2023-01-03T08:56:01.571Z,94065.00
2023-01-03T08:57:33.055Z,94068.31
2023-01-03T08:59:04.858Z,94058.22
2023-01-03T09:00:39.986Z,94062.63
2023-01-03T09:02:11.728Z,94064.69
2023-01-03T09:03:43.622Z,94062.44
2023-01-03T09:05:15.825Z,94062.84
2023-01-03T09:06:47.402Z,94067.81
2023-01-03T09:08:18.944Z,94055.19
2023-01-03T09:09:50.429Z,94053.84
2023-01-03T09:11:21.921Z,94051.34
2023-01-03T09:12:53.464Z,94049.50
2023-01-03T09:14:25.043Z,94052.66
2023-01-03T09:16:06.616Z,94044.00
2023-01-03T09:17:38.230Z,94043.59
2023-01-03T09:19:09.760Z,94041.22
2023-01-03T09:20:41.527Z,94038.63
2023-01-03T09:22:13.142Z,94039.00
2023-01-03T09:23:44.754Z,94038.88
2023-01-03T09:25:16.603Z,94036.53
2023-01-03T09:26:54.210Z,94033.34
2023-01-03T09:28:26.384Z,94031.31
2023-01-03T09:29:57.881Z,94027.97
2023-01-03T09:31:35.085Z,94026.72
2023-01-03T09:33:06.850Z,94019.38
2023-01-03T09:34:38.401Z,94022.09
2023-01-03T09:36:11.504Z,94015.09
2023-01-03T09:37:48.722Z,94013.81
2023-01-03T09:39:20.589Z,94009.59
2023-01-03T09:40:59.572Z,94006.97
2023-01-03T09:42:49.621Z,94003.56
2023-01-03T09:44:21.172Z,94000.94
2023-01-03T09:45:53.435Z,94004.00
2023-01-03T09:47:25.359Z,94006.50
2023-01-03T09:48:57.062Z,93998.56
2023-01-03T09:50:44.222Z,93998.66
2023-01-03T09:52:40.162Z,93996.56
2023-01-03T09:54:42.555Z,93992.31
2023-01-03T09:56:32.645Z,93986.16
2023-01-03T09:58:43.729Z,93994.38
2023-01-03T10:00:38.061Z,93990.66
2023-01-03T10:02:29.774Z,93983.91
2023-01-03T10:04:23.319Z,93984.75
2023-01-03T10:05:56.469Z,93980.47
2023-01-03T10:07:28.169Z,93982.06
2023-01-03T10:09:12.157Z,93981.59
2023-01-03T10:10:43.684Z,93969.38
2023-01-03T10:12:33.476Z,93980.44
2023-01-03T10:14:15.347Z,93961.47
2023-01-03T10:16:08.225Z,93968.19
2023-01-03T10:17:48.979Z,93953.78
2023-01-03T10:19:26.293Z,93953.81
2023-01-03T10:21:03.595Z,93956.81
2023-01-03T10:22:35.237Z,93959.53
2023-01-03T10:24:25.684Z,93956.31
2023-01-03T10:25:57.413Z,93954.47
2023-01-03T10:27:30.131Z,93945.63
2023-01-03T10:29:01.836Z,93948.03
2023-01-03T10:30:59.436Z,93946.94
2023-01-03T10:32:35.229Z,93946.16
2023-01-03T10:34:07.120Z,93944.00
2023-01-03T10:35:38.726Z,93946.13
2023-01-03T10:37:19.870Z,93945.56
2023-01-03T10:39:05.013Z,93935.09
2023-01-03T10:40:42.635Z,93932.13
2023-01-03T10:42:20.664Z,93925.41
2023-01-03T10:44:01.850Z,93928.03
2023-01-03T10:45:41.558Z,93925.81
2023-01-03T10:47:16.756Z,93917.44
2023-01-03T10:50:41.150Z,93919.00
2023-01-03T10:52:14.805Z,93912.78
2023-01-03T10:53:46.823Z,93914.59
2023-01-03T10:55:19.166Z,93915.91
2023-01-03T10:56:51.783Z,93910.69
2023-01-03T10:58:27.994Z,93911.19
2023-01-03T11:00:02.526Z,93911.31
2023-01-03T11:01:34.256Z,93897.47
2023-01-03T11:03:16.677Z,93906.75
2023-01-03T11:04:48.499Z,93891.25
2023-01-03T11:06:20.116Z,93892.09
2023-01-03T11:07:55.385Z,93882.59
2023-01-03T11:09:28.244Z,93883.59
2023-01-03T11:10:59.954Z,93878.22
2023-01-03T11:12:38.419Z,93880.72
2023-01-03T11:14:10.148Z,93873.31
2023-01-03T11:15:41.750Z,93867.47
2023-01-03T11:17:16.500Z,93875.44
2023-01-03T11:19:01.801Z,93870.41
2023-01-03T11:20:37.276Z,93871.84
2023-01-03T11:22:25.053Z,93862.78
2023-01-03T11:24:11.610Z,93863.59
2023-01-03T11:26:03.572Z,93853.44
2023-01-03T11:27:38.247Z,93858.56
2023-01-03T11:29:15.949Z,93859.84
2023-01-03T11:30:47.612Z,93851.56
2023-01-03T11:32:23.052Z,93850.31
2023-01-03T11:34:06.356Z,93844.97
2023-01-03T11:35:43.607Z,93843.22
2023-01-03T11:37:18.165Z,93843.75
2023-01-03T11:38:55.761Z,93837.66
2023-01-03T11:40:34.061Z,93833.63
2023-01-03T11:42:24.026Z,93836.56
2023-01-03T11:44:04.091Z,93831.31
2023-01-03T11:45:35.599Z,93826.06
2023-01-03T11:47:15.538Z,93831.41
2023-01-03T11:48:50.216Z,93833.38
2023-01-03T11:50:40.808Z,93824.81
2023-01-03T11:52:12.459Z,93824.53
2023-01-03T11:53:49.740Z,93824.53
2023-01-03T11:55:24.437Z,93824.91
2023-01-03T11:56:56.166Z,93816.81
2023-01-03T11:58:27.696Z,93821.63
2023-01-03T12:00:09.137Z,93811.59
2023-01-03T12:01:53.406Z,93810.00
2023-01-03T12:03:31.210Z,93813.72
2023-01-03T12:05:21.657Z,93812.44
2023-01-03T12:07:36.748Z,93806.91
2023-01-03T12:09:07.325Z,93804.03
2023-01-03T12:10:42.158Z,93801.66
2023-01-03T12:12:13.858Z,93804.69
2023-01-03T12:13:55.385Z,93798.94
2023-01-03T12:15:30.018Z,93795.94
2023-01-03T12:17:21.853Z,93792.41
2023-01-03T12:18:55.429Z,93798.16
2023-01-03T12:20:28.351Z,93791.28
2023-01-03T12:22:18.353Z,93795.25
2023-01-03T12:23:52.887Z,93790.78
2023-01-03T12:25:44.074Z,93789.34
2023-01-03T12:27:18.094Z,93790.78
2023-01-03T12:28:51.412Z,93790.59
2023-01-03T12:30:34.046Z,93794.09
2023-01-03T12:32:25.951Z,93794.09
2023-01-03T12:34:21.420Z,93792.22
2023-01-03T12:36:01.522Z,93794.72
2023-01-03T12:37:34.057Z,93795.50
2023-01-03T12:39:30.848Z,93797.19
2023-01-03T12:41:22.855Z,93787.75
2023-01-03T12:42:57.433Z,93794.72
2023-01-03T12:44:36.401Z,93792.13
2023-01-03T12:46:13.285Z,93782.00
2023-01-03T12:47:45.425Z,93789.78
2023-01-03T12:49:18.599Z,93785.59
2023-01-03T12:50:50.627Z,93777.44
2023-01-03T12:52:22.648Z,93777.63
2023-01-03T12:54:05.065Z,93781.63
2023-01-03T12:55:42.514Z,93781.16
2023-01-03T12:57:17.188Z,93781.25
2023-01-03T12:58:51.563Z,93781.75
2023-01-03T13:00:38.054Z,93786.31
2023-01-03T13:02:22.156Z,93782.47
2023-01-03T13:03:55.799Z,93778.13
2023-01-03T13:05:36.080Z,93782.38
2023-01-03T13:07:16.028Z,93782.63
2023-01-03T13:08:59.875Z,93780.38
2023-01-03T13:10:32.183Z,93780.38
2023-01-03T13:12:07.452Z,93780.38
2023-01-03T13:13:39.075Z,93785.16
2023-01-03T13:15:33.495Z,93783.91
2023-01-03T13:17:15.692Z,93783.56
2023-01-03T13:18:47.733Z,93784.16
2023-01-03T13:20:25.203Z,93782.44
2023-01-03T13:22:00.063Z,93781.28
2023-01-03T13:23:52.411Z,93786.88
2023-01-03T13:25:28.186Z,93785.28
2023-01-03T13:27:17.900Z,93778.38
2023-01-03T13:28:52.042Z,93784.16
2023-01-03T13:30:24.384Z,93781.44
2023-01-03T13:32:02.817Z,93784.47
2023-01-03T13:33:42.392Z,93782.09
2023-01-03T13:35:19.061Z,93782.09
2023-01-03T13:37:02.949Z,93786.00
2023-01-03T13:38:37.428Z,93783.56
2023-01-03T13:40:52.137Z,93779.03
2023-01-03T13:42:36.456Z,93777.31
2023-01-03T13:44:15.939Z,93780.38
2023-01-03T13:45:49.141Z,93773.19
2023-01-03T13:47:26.737Z,93779.56
2023-01-03T13:49:02.359Z,93767.09
2023-01-03T13:50:34.631Z,93775.34
2023-01-03T13:52:08.601Z,93770.22
2023-01-03T13:54:01.004Z,93765.25
2023-01-03T13:55:39.036Z,93771.81
2023-01-03T13:57:30.407Z,93766.44
2023-01-03T13:59:02.014Z,93772.88
2023-01-03T14:00:33.590Z,93769.66
2023-01-03T14:02:24.167Z,93762.56
2023-01-03T14:03:58.724Z,93762.13
2023-01-03T14:05:33.189Z,93764.47
2023-01-03T14:07:13.561Z,93760.84
2023-01-03T14:09:17.666Z,93762.44
2023-01-03T14:10:49.276Z,93770.13
2023-01-03T14:12:28.201Z,93763.72
2023-01-03T14:14:01.119Z,93768.03
2023-01-03T14:15:33.041Z,93769.16
2023-01-03T14:17:04.988Z,93769.47
2023-01-03T14:18:36.720Z,93771.91
2023-01-03T14:20:09.765Z,93772.91
2023-01-03T14:21:50.295Z,93776.94
2023-01-03T14:23:58.616Z,93764.84
2023-01-03T14:25:34.543Z,93772.72
2023-01-03T14:27:11.500Z,93776.56
2023-01-03T14:28:50.263Z,93768.78
2023-01-03T14:30:22.582Z,93769.63
2023-01-03T14:31:56.040Z,93763.75
2023-01-03T14:33:47.862Z,93772.06
2023-01-03T14:35:32.691Z,93770.66
2023-01-03T14:37:05.721Z,93777.50
2023-01-03T14:38:37.320Z,93771.00
2023-01-03T14:40:18.871Z,93775.59
2023-01-03T14:41:50.551Z,93780.41
2023-01-03T14:43:22.111Z,93776.25
2023-01-03T14:44:57.259Z,93780.41
2023-01-03T14:46:29.494Z,93776.28
2023-01-03T14:48:01.019Z,93778.84
2023-01-03T14:49:32.510Z,93771.81
2023-01-03T14:51:04.547Z,93782.97
2023-01-03T14:52:38.434Z,93772.41
2023-01-03T14:54:12.035Z,93778.09
2023-01-03T14:55:46.794Z,93782.06
2023-01-03T14:57:19.638Z,93784.09
2023-01-03T14:58:51.296Z,93781.81
2023-01-03T15:00:32.116Z,93781.44
2023-01-03T15:02:12.274Z,93790.13
2023-01-03T15:03:44.951Z,93784.47
2023-01-03T15:05:25.754Z,93794.84
2023-01-03T15:07:03.398Z,93786.28
2023-01-03T15:08:39.664Z,93787.47
2023-01-03T15:10:11.197Z,93784.13
2023-01-03T15:11:59.542Z,93783.09
2023-01-03T15:13:35.389Z,93782.19
2023-01-03T15:15:08.021Z,93782.72
2023-01-03T15:16:42.434Z,93790.38
2023-01-03T15:18:20.261Z,93784.53
2023-01-03T15:19:54.458Z,93785.56
2023-01-03T15:21:26.213Z,93794.06
2023-01-03T15:22:57.806Z,93795.25
2023-01-03T15:24:29.327Z,93794.06
2023-01-03T15:26:03.790Z,93796.59
2023-01-03T15:27:37.934Z,93796.06
2023-01-03T15:29:16.627Z,93796.31
2023-01-03T15:30:49.241Z,93799.00
2023-01-03T15:32:20.983Z,93797.56
2023-01-03T15:34:22.004Z,93810.03
2023-01-03T15:35:53.670Z,93807.41
2023-01-03T15:37:25.438Z,93803.44
2023-01-03T15:38:57.050Z,93809.41
2023-01-03T15:40:31.590Z,93811.84
2023-01-03T15:44:14.882Z,93815.44
2023-01-03T15:45:48.390Z,93810.19
2023-01-03T15:47:20.015Z,93817.34
2023-01-03T15:48:54.977Z,93813.13
2023-01-03T15:50:27.987Z,93812.63
2023-01-03T15:51:59.811Z,93812.41
2023-01-03T15:53:37.810Z,93804.94
2023-01-03T15:55:13.178Z,93820.28
2023-01-03T15:57:07.334Z,93816.84
2023-01-03T15:58:38.940Z,93819.41
2023-01-03T16:00:10.995Z,93820.84
2023-01-03T16:01:42.923Z,93821.28
2023-01-03T16:03:20.702Z,93824.31
2023-01-03T16:04:53.182Z,93824.88
2023-01-03T16:06:24.945Z,93823.59
2023-01-03T16:07:56.594Z,93828.09
2023-01-03T16:09:31.566Z,93824.59
2023-01-03T16:11:04.240Z,93831.03
2023-01-03T16:12:36.676Z,93830.72
2023-01-03T16:14:36.761Z,93825.25
2023-01-03T16:16:08.645Z,93831.97
2023-01-03T16:17:40.765Z,93833.28
2023-01-03T16:19:18.285Z,93834.91
2023-01-03T16:20:49.835Z,93827.34
2023-01-03T16:22:34.553Z,93835.69
2023-01-03T16:24:06.957Z,93839.75
2023-01-03T16:25:39.132Z,93840.03
2023-01-03T16:27:16.810Z,93841.13
2023-01-03T16:28:48.930Z,93844.41
2023-01-03T16:30:20.635Z,93853.06
2023-01-03T16:31:52.331Z,93850.66
2023-01-03T16:33:24.004Z,93853.94
2023-01-03T16:34:59.893Z,93859.59
2023-01-03T16:36:36.587Z,93855.88
2023-01-03T16:38:13.469Z,93859.94
2023-01-03T16:39:48.265Z,93864.09
2023-01-03T16:41:20.642Z,93868.44
2023-01-03T16:42:52.495Z,93863.09
2023-01-03T16:44:26.376Z,93867.66
2023-01-03T16:45:58.744Z,93871.16
2023-01-03T16:47:31.215Z,93873.34
2023-01-03T16:49:02.768Z,93879.03
2023-01-03T16:50:38.363Z,93876.09
2023-01-03T16:52:13.087Z,93874.78
2023-01-03T16:53:48.128Z,93885.81
2023-01-03T16:55:23.667Z,93872.97
2023-01-03T16:56:55.351Z,93881.53
2023-01-03T16:58:27.377Z,93878.81
2023-01-03T16:59:58.947Z,93879.16
2023-01-03T17:01:30.901Z,93879.41
2023-01-03T17:03:03.453Z,93882.13
2023-01-03T17:04:35.220Z,93875.69
2023-01-03T17:06:07.056Z,93882.44
2023-01-03T17:07:39.117Z,93875.78
2023-01-03T17:09:18.025Z,93888.75
2023-01-03T17:10:50.876Z,93887.69
2023-01-03T17:12:22.626Z,93886.66
2023-01-03T17:13:55.598Z,93877.78
2023-01-03T17:15:27.122Z,93888.78
2023-01-03T17:16:58.718Z,93892.56
2023-01-03T17:18:31.347Z,93886.13
2023-01-03T17:20:06.823Z,93892.91
2023-01-03T17:21:38.451Z,93896.16
2023-01-03T17:23:10.202Z,93885.13
2023-01-03T17:24:41.852Z,93891.66
2023-01-03T17:26:17.453Z,93889.53
2023-01-03T17:27:50.174Z,93889.28
2023-01-03T17:29:24.396Z,93888.47
2023-01-03T17:30:57.008Z,93893.84
2023-01-03T17:32:28.890Z,93887.97
2023-01-03T17:34:00.599Z,93887.41
2023-01-03T17:35:32.354Z,93893.84
2023-01-03T17:37:06.805Z,93885.03
2023-01-03T17:38:38.445Z,93890.69
2023-01-03T17:40:18.661Z,93892.06
2023-01-03T17:42:09.556Z,93888.06
2023-01-03T17:43:44.174Z,93888.63
2023-01-03T17:45:34.481Z,93891.84
2023-01-03T17:47:36.919Z,93889.19
2023-01-03T17:49:32.288Z,93896.22
2023-01-03T17:51:04.231Z,93896.84
2023-01-03T17:52:36.339Z,93903.03
2023-01-03T17:54:11.227Z,93903.31
2023-01-03T17:55:46.539Z,93893.63
2023-01-03T17:57:18.186Z,93896.91
2023-01-03T17:58:55.617Z,93894.56
2023-01-03T18:00:28.793Z,93898.06
2023-01-03T18:02:00.608Z,93899.16
2023-01-03T18:03:32.336Z,93894.63
2023-01-03T18:05:26.591Z,93890.59
2023-01-03T18:06:58.651Z,93896.53
2023-01-03T18:08:32.679Z,93895.50
2023-01-03T18:10:06.644Z,93897.66
2023-01-03T18:11:38.321Z,93890.19
2023-01-03T18:13:19.793Z,93890.19
2023-01-03T18:14:51.491Z,93889.66
2023-01-03T18:16:23.367Z,93887.25
2023-01-03T18:17:55.204Z,93889.41
2023-01-03T18:19:26.943Z,93886.75
2023-01-03T18:20:58.881Z,93887.25
2023-01-03T18:22:33.141Z,93900.38
2023-01-03T18:24:05.761Z,93891.25
2023-01-03T18:25:39.536Z,93893.94
2023-01-03T18:27:11.414Z,93900.88
2023-01-03T18:28:43.415Z,93909.72
2023-01-03T18:30:15.799Z,93893.91
2023-01-03T18:31:48.014Z,93904.09
2023-01-03T18:33:19.807Z,93896.31
2023-01-03T18:34:51.519Z,93892.28
2023-01-03T18:36:29.622Z,93900.38
2023-01-03T18:38:01.304Z,93912.19
2023-01-03T18:39:33.146Z,93907.41
2023-01-03T18:41:06.002Z,93909.28
2023-01-03T18:42:56.413Z,93911.69
2023-01-03T18:44:28.084Z,93918.41
2023-01-03T18:45:59.841Z,93908.50
2023-01-03T18:47:32.362Z,93919.25
2023-01-03T18:49:04.091Z,93921.94
2023-01-03T18:50:35.794Z,93920.03